createdAt,value
2018-10-16T00:01:39.875Z,99067.54
2018-10-16T00:04:08.212Z,99068.77
2018-10-16T00:06:36.580Z,99072.24
2018-10-16T00:09:07.138Z,99075.02
2018-10-16T00:11:35.555Z,99079.48
2018-10-16T00:14:03.915Z,99083.97
2018-10-16T00:16:32.294Z,99081.88
2018-10-16T00:19:00.634Z,99082.73
2018-10-16T00:21:28.955Z,99078.02
2018-10-16T00:23:57.342Z,99074.05
2018-10-16T00:26:25.635Z,99078.97
2018-10-16T00:28:53.906Z,99080.42
2018-10-16T00:31:22.204Z,99082.73
2018-10-16T00:33:50.754Z,99088.16
2018-10-16T00:36:19.230Z,99091.63
2018-10-16T00:38:47.569Z,99085.63
2018-10-16T00:41:15.906Z,99082.59
2018-10-16T00:43:44.247Z,99085.25
2018-10-16T00:46:12.686Z,99085.38
2018-10-16T00:48:40.983Z,99086.70
2018-10-16T00:51:09.374Z,99092.98
2018-10-16T00:53:37.687Z,99093.45
2018-10-16T00:56:06.276Z,99096.58
2018-10-16T00:58:34.552Z,99100.22
2018-10-16T01:01:02.888Z,99097.69
2018-10-16T01:03:31.205Z,99100.81
2018-10-16T01:05:59.499Z,99106.12
2018-10-16T01:08:28.108Z,99117.71
2018-10-16T01:10:56.428Z,99111.20
2018-10-16T01:13:24.784Z,99114.33
2018-10-16T01:15:53.302Z,99117.95
2018-10-16T01:18:21.662Z,99125.19
2018-10-16T01:20:50.015Z,99124.67
2018-10-16T01:23:18.400Z,99126.13
2018-10-16T01:25:46.724Z,99125.78
2018-10-16T01:28:15.058Z,99122.74
2018-10-16T01:30:44.538Z,99124.57
2018-10-16T01:33:13.019Z,99128.05
2018-10-16T01:35:41.312Z,99132.53
2018-10-16T01:38:09.671Z,99127.35
2018-10-16T01:40:37.998Z,99126.14
2018-10-16T01:43:06.356Z,99125.29
2018-10-16T01:45:34.715Z,99119.13
2018-10-16T01:48:03.108Z,99121.91
2018-10-16T01:50:31.465Z,99124.56
2018-10-16T01:52:59.840Z,99123.36
2018-10-16T01:55:28.130Z,99121.91
2018-10-16T01:57:56.458Z,99121.67
2018-10-16T02:00:24.791Z,99122.15
2018-10-16T02:02:53.167Z,99121.77
2018-10-16T02:05:21.531Z,99121.77
2018-10-16T02:07:49.865Z,99122.39
2018-10-16T02:10:18.187Z,99125.98
2018-10-16T02:12:46.998Z,99121.66
2018-10-16T02:15:15.311Z,99126.11
2018-10-16T02:17:43.634Z,99125.77
2018-10-16T02:20:11.970Z,99128.53
2018-10-16T02:22:40.492Z,99125.88
2018-10-16T02:25:09.715Z,99132.02
2018-10-16T02:27:38.112Z,99135.64
2018-10-16T02:30:06.748Z,99132.60
2018-10-16T02:32:35.119Z,99136.23
2018-10-16T02:35:03.479Z,99127.06
2018-10-16T02:37:31.875Z,99135.03
2018-10-16T02:40:00.174Z,99136.47
2018-10-16T02:42:28.510Z,99139.13
2018-10-16T02:44:56.810Z,99134.41
2018-10-16T02:47:25.255Z,99135.73
2018-10-16T02:49:53.560Z,99136.71
2018-10-16T02:52:21.870Z,99142.84
2018-10-16T02:54:50.187Z,99137.19
2018-10-16T02:57:18.501Z,99142.96
2018-10-16T02:59:46.940Z,99142.61
2018-10-16T03:02:15.263Z,99137.30
2018-10-16T03:04:43.614Z,99139.58
2018-10-16T03:07:11.944Z,99139.58
2018-10-16T03:09:40.318Z,99144.88
2018-10-16T03:12:08.675Z,99141.41
2018-10-16T03:14:37.016Z,99141.88
2018-10-16T03:17:05.653Z,99142.34
2018-10-16T03:19:33.987Z,99148.16
2018-10-16T03:22:02.319Z,99146.32
2018-10-16T03:24:30.666Z,99144.64
2018-10-16T03:26:59.019Z,99152.59
2018-10-16T03:29:27.343Z,99149.95
2018-10-16T03:31:55.644Z,99154.87
2018-10-16T03:34:24.054Z,99155.37
2018-10-16T03:36:52.882Z,99154.52
2018-10-16T03:39:21.223Z,99157.29
2018-10-16T03:41:49.585Z,99151.52
2018-10-16T03:44:18.007Z,99154.17
2018-10-16T03:46:46.324Z,99152.45
2018-10-16T03:49:14.670Z,99153.43
2018-10-16T03:51:43.038Z,99156.55
2018-10-16T03:54:11.403Z,99154.37
2018-10-16T03:56:39.778Z,99159.20
2018-10-16T03:59:08.135Z,99156.55
2018-10-16T04:01:36.442Z,99156.20
2018-10-16T04:04:05.073Z,99157.02
2018-10-16T04:06:33.448Z,99150.52
2018-10-16T04:09:01.848Z,99152.70
2018-10-16T04:11:30.146Z,99151.38
2018-10-16T04:13:58.496Z,99156.67
2018-10-16T04:16:27.006Z,99153.28
2018-10-16T04:18:55.723Z,99159.91
2018-10-16T04:21:28.098Z,99159.45
2018-10-16T04:23:56.431Z,99159.91
2018-10-16T04:26:24.783Z,99158.59
2018-10-16T04:28:53.138Z,99159.56
2018-10-16T04:31:21.438Z,99166.19
2018-10-16T04:33:49.752Z,99167.98
2018-10-16T04:36:18.055Z,99165.72
2018-10-16T04:38:46.443Z,99167.98
2018-10-16T04:41:14.782Z,99167.52
2018-10-16T04:43:43.131Z,99174.88
2018-10-16T04:46:11.448Z,99167.52
2018-10-16T04:48:39.803Z,99171.11
2018-10-16T04:51:08.126Z,99167.98
2018-10-16T04:53:36.474Z,99169.78
2018-10-16T04:56:04.826Z,99177.15
2018-10-16T04:58:33.142Z,99179.45
2018-10-16T05:01:01.545Z,99178.13
2018-10-16T05:03:29.870Z,99180.30
2018-10-16T05:05:59.097Z,99181.62
2018-10-16T05:08:27.516Z,99181.62
2018-10-16T05:10:55.845Z,99187.41
2018-10-16T05:13:24.148Z,99185.10
2018-10-16T05:15:52.544Z,99186.81
2018-10-16T05:18:20.971Z,99181.12
2018-10-16T05:20:49.262Z,99178.00
2018-10-16T05:23:17.718Z,99183.77
2018-10-16T05:25:46.055Z,99183.77
2018-10-16T05:28:14.390Z,99183.77
2018-10-16T05:30:42.799Z,99187.75
2018-10-16T05:33:11.153Z,99188.14
2018-10-16T05:35:39.566Z,99190.79
2018-10-16T05:38:07.915Z,99188.95
2018-10-16T05:40:36.255Z,99191.73
2018-10-16T05:43:04.827Z,99194.38
2018-10-16T05:45:34.958Z,99198.23
2018-10-16T05:48:03.290Z,99204.40
2018-10-16T05:50:32.259Z,99200.07
2018-10-16T05:53:00.938Z,99210.05
2018-10-16T05:55:29.315Z,99209.23
2018-10-16T05:57:57.679Z,99212.70
2018-10-16T06:00:36.292Z,99214.15
2018-10-16T06:03:04.842Z,99212.47
2018-10-16T06:05:33.473Z,99212.94
2018-10-16T06:08:01.762Z,99216.45
2018-10-16T06:10:30.099Z,99219.95
2018-10-16T06:12:58.398Z,99223.94
2018-10-16T06:15:26.903Z,99223.94
2018-10-16T06:17:55.222Z,99233.69
2018-10-16T06:20:23.592Z,99235.86
2018-10-16T06:22:51.906Z,99239.84
2018-10-16T06:25:20.238Z,99240.66
2018-10-16T06:27:48.718Z,99239.84
2018-10-16T06:30:17.063Z,99246.47
2018-10-16T06:32:45.366Z,99247.41
2018-10-16T06:35:13.718Z,99245.97
2018-10-16T06:37:42.058Z,99253.45
2018-10-16T06:40:11.047Z,99250.33
2018-10-16T06:42:39.707Z,99249.83
2018-10-16T06:45:09.306Z,99250.09
2018-10-16T06:47:37.928Z,99253.10
2018-10-16T06:50:09.219Z,99256.14
2018-10-16T06:52:39.043Z,99257.34
2018-10-16T06:55:07.767Z,99255.55
2018-10-16T06:57:36.161Z,99256.77
2018-10-16T07:00:05.160Z,99262.30
2018-10-16T07:02:33.444Z,99260.86
2018-10-16T07:05:01.768Z,99263.30
2018-10-16T07:07:30.127Z,99261.36
2018-10-16T07:09:58.452Z,99260.42
2018-10-16T07:12:26.746Z,99259.44
2018-10-16T07:14:55.142Z,99261.50
2018-10-16T07:17:23.428Z,99265.72
2018-10-16T07:19:51.732Z,99270.70
2018-10-16T07:22:20.127Z,99273.23
2018-10-16T07:24:48.463Z,99274.45
2018-10-16T07:27:16.811Z,99268.08
2018-10-16T07:29:45.143Z,99268.66
2018-10-16T07:32:13.459Z,99270.37
2018-10-16T07:34:41.946Z,99268.81
2018-10-16T07:37:10.558Z,99268.58
2018-10-16T07:39:38.883Z,99262.67
2018-10-16T07:42:07.175Z,99266.69
2018-10-16T07:44:35.530Z,99267.64
2018-10-16T07:47:03.858Z,99267.41
2018-10-16T07:49:32.165Z,99269.77
2018-10-16T07:52:00.534Z,99269.05
2018-10-16T07:54:28.870Z,99279.30
2018-10-16T07:56:57.247Z,99277.27
2018-10-16T07:59:25.631Z,99276.91
2018-10-16T08:01:54.016Z,99281.50
2018-10-16T08:04:22.362Z,99289.09
2018-10-16T08:06:50.691Z,99287.44
2018-10-16T08:09:19.030Z,99285.74
2018-10-16T08:11:48.540Z,99288.41
2018-10-16T08:14:18.154Z,99290.58
2018-10-16T08:16:47.899Z,99292.52
2018-10-16T08:19:16.440Z,99296.98
2018-10-16T08:21:45.805Z,99301.96
2018-10-16T08:24:14.211Z,99297.95
2018-10-16T08:26:42.529Z,99304.17
2018-10-16T08:29:10.871Z,99310.81
2018-10-16T08:31:39.367Z,99310.67
2018-10-16T08:34:07.717Z,99304.50
2018-10-16T08:36:36.284Z,99307.16
2018-10-16T08:39:25.318Z,99306.19
2018-10-16T08:42:34.090Z,99305.72
2018-10-16T08:45:15.338Z,99304.35
2018-10-16T08:47:55.024Z,99297.36
2018-10-16T08:50:35.710Z,99295.39
2018-10-16T08:53:04.302Z,99292.51
2018-10-16T08:55:32.886Z,99296.45
2018-10-16T08:58:01.654Z,99287.65
2018-10-16T09:00:31.730Z,99296.09
2018-10-16T09:03:00.258Z,99295.75
2018-10-16T09:05:28.863Z,99296.69
2018-10-16T09:07:57.171Z,99297.28
2018-10-16T09:10:25.983Z,99302.59
2018-10-16T09:12:54.304Z,99300.53
2018-10-16T09:15:23.364Z,99301.47
2018-10-16T09:17:51.711Z,99305.92
2018-10-16T09:20:20.170Z,99296.00
2018-10-16T09:22:48.531Z,99299.12
2018-10-16T09:25:17.766Z,99299.20
2018-10-16T09:27:46.088Z,99299.92
2018-10-16T09:30:14.922Z,99302.09
2018-10-16T09:32:43.362Z,99300.36
2018-10-16T09:35:12.695Z,99298.77
2018-10-16T09:37:41.162Z,99301.09
2018-10-16T09:40:11.523Z,99295.84
2018-10-16T09:42:39.930Z,99305.14
2018-10-16T09:45:09.531Z,99304.74
2018-10-16T09:47:37.969Z,99300.86
2018-10-16T09:50:06.798Z,99298.64
2018-10-16T09:52:35.152Z,99300.05
2018-10-16T09:55:03.486Z,99299.30
2018-10-16T09:57:31.808Z,99302.55
2018-10-16T10:00:00.398Z,99301.33
2018-10-16T10:02:28.771Z,99301.05
2018-10-16T10:04:57.074Z,99302.77
2018-10-16T10:07:25.451Z,99299.11
2018-10-16T10:09:53.751Z,99301.64
2018-10-16T10:12:22.067Z,99301.50
2018-10-16T10:14:50.758Z,99296.17
2018-10-16T10:17:19.121Z,99302.08
2018-10-16T10:19:47.491Z,99296.00
2018-10-16T10:22:15.848Z,99296.72
2018-10-16T10:24:44.241Z,99295.39
2018-10-16T10:27:12.594Z,99294.26
2018-10-16T10:29:40.948Z,99292.69
2018-10-16T10:32:09.407Z,99295.21
2018-10-16T10:34:37.731Z,99301.44
2018-10-16T10:37:06.212Z,99297.06
2018-10-16T10:39:34.703Z,99294.91
2018-10-16T10:42:03.206Z,99296.00
2018-10-16T10:44:31.586Z,99293.95
2018-10-16T10:46:59.951Z,99291.91
2018-10-16T10:49:28.319Z,99289.23
2018-10-16T10:51:56.642Z,99287.22
2018-10-16T10:54:25.111Z,99291.69
2018-10-16T10:56:54.123Z,99289.51
2018-10-16T10:59:22.494Z,99289.98
2018-10-16T11:01:51.007Z,99290.50
2018-10-16T11:04:19.348Z,99291.31
2018-10-16T11:06:47.678Z,99290.13
2018-10-16T11:09:16.191Z,99289.78
2018-10-16T11:11:49.771Z,99291.97
2018-10-16T11:14:18.079Z,99291.11
2018-10-16T11:16:46.395Z,99290.77
2018-10-16T11:19:14.748Z,99292.92
2018-10-16T11:21:43.310Z,99291.59
2018-10-16T11:24:11.654Z,99292.45
2018-10-16T11:26:40.052Z,99292.11
2018-10-16T11:29:08.519Z,99289.30
2018-10-16T11:31:37.216Z,99289.44
2018-10-16T11:34:05.923Z,99287.97
2018-10-16T11:36:34.423Z,99288.79
2018-10-16T11:39:03.435Z,99288.45
2018-10-16T11:41:31.784Z,99292.79
2018-10-16T11:44:00.160Z,99286.98
2018-10-16T11:46:28.752Z,99281.66
2018-10-16T11:48:57.876Z,99288.17
2018-10-16T11:51:26.329Z,99288.66
2018-10-16T11:53:54.779Z,99288.66
2018-10-16T11:56:23.212Z,99278.84
2018-10-16T11:58:51.583Z,99281.52
2018-10-16T12:01:19.954Z,99279.70
2018-10-16T12:03:48.444Z,99278.37
2018-10-16T12:06:16.931Z,99276.05
2018-10-16T12:08:45.695Z,99283.91
2018-10-16T12:11:14.286Z,99278.23
2018-10-16T12:13:42.659Z,99278.58
2018-10-16T12:16:11.006Z,99273.89
2018-10-16T12:19:01.193Z,99279.91
2018-10-16T12:21:29.834Z,99276.42
2018-10-16T12:23:58.331Z,99276.91
2018-10-16T12:26:26.740Z,99275.91
2018-10-16T12:28:55.207Z,99281.61
2018-10-16T12:31:23.622Z,99279.91
2018-10-16T12:33:52.062Z,99274.47
2018-10-16T12:36:20.567Z,99270.95
2018-10-16T12:38:49.005Z,99266.58
2018-10-16T12:41:17.581Z,99265.90
2018-10-16T12:43:46.069Z,99268.56
2018-10-16T12:46:14.580Z,99266.24
2018-10-16T12:48:42.995Z,99271.57
2018-10-16T12:51:11.463Z,99267.23
2018-10-16T12:53:39.783Z,99270.37
2018-10-16T12:56:08.148Z,99268.56
2018-10-16T12:58:36.531Z,99268.19
2018-10-16T13:01:06.098Z,99265.52
2018-10-16T13:03:34.538Z,99264.19
2018-10-16T13:06:03.205Z,99264.19
2018-10-16T13:08:31.661Z,99268.19
2018-10-16T13:11:00.201Z,99265.32
2018-10-16T13:13:28.707Z,99262.28
2018-10-16T13:15:57.121Z,99267.47
2018-10-16T13:18:25.419Z,99270.14
2018-10-16T13:20:53.858Z,99269.80
2018-10-16T13:23:22.292Z,99264.33
2018-10-16T13:25:50.631Z,99263.84
2018-10-16T13:28:19.042Z,99264.67
2018-10-16T13:30:47.381Z,99265.19
2018-10-16T13:33:15.704Z,99265.66
2018-10-16T13:35:44.182Z,99268.80
2018-10-16T13:38:12.597Z,99267.47
2018-10-16T13:40:40.872Z,99263.47
2018-10-16T13:43:09.384Z,99265.32
2018-10-16T13:45:37.723Z,99260.13
2018-10-16T13:48:06.713Z,99260.47
2018-10-16T13:50:35.095Z,99260.13
2018-10-16T13:53:03.492Z,99258.28
2018-10-16T13:55:31.862Z,99257.46
2018-10-16T13:58:00.298Z,99262.80
2018-10-16T14:00:28.770Z,99260.13
2018-10-16T14:02:57.071Z,99257.09
2018-10-16T14:05:25.575Z,99257.22
2018-10-16T14:07:53.983Z,99259.75
2018-10-16T14:10:22.420Z,99266.55
2018-10-16T14:12:50.855Z,99271.88
2018-10-16T14:15:19.459Z,99263.55
2018-10-16T14:17:47.862Z,99262.69
2018-10-16T14:20:16.246Z,99265.70
2018-10-16T14:22:44.664Z,99262.69
2018-10-16T14:25:14.371Z,99261.02
2018-10-16T14:27:43.040Z,99257.49
2018-10-16T14:30:13.000Z,99265.01
2018-10-16T14:32:41.944Z,99257.63
2018-10-16T14:35:10.962Z,99257.63
2018-10-16T14:37:39.705Z,99260.78
2018-10-16T14:40:09.652Z,99259.44
2018-10-16T14:42:38.013Z,99259.92
2018-10-16T14:45:07.529Z,99260.06
2018-10-16T14:47:35.882Z,99257.91
2018-10-16T14:50:04.703Z,99255.72
2018-10-16T14:52:33.032Z,99258.01
2018-10-16T14:55:01.464Z,99255.72
2018-10-16T14:57:29.811Z,99255.72
2018-10-16T14:59:58.259Z,99258.86
2018-10-16T15:02:26.695Z,99254.02
2018-10-16T15:04:55.186Z,99255.48
2018-10-16T15:07:23.914Z,99250.52
2018-10-16T15:09:52.554Z,99248.34
2018-10-16T15:12:25.265Z,99248.81
2018-10-16T15:14:54.426Z,99243.48
2018-10-16T15:17:23.032Z,99244.82
2018-10-16T15:19:51.680Z,99245.81
2018-10-16T15:22:20.203Z,99241.09
2018-10-16T15:24:48.639Z,99244.23
2018-10-16T15:27:17.182Z,99240.89
2018-10-16T15:29:45.719Z,99244.52
2018-10-16T15:32:14.718Z,99237.64
2018-10-16T15:34:43.763Z,99236.45
2018-10-16T15:37:12.674Z,99237.88
2018-10-16T15:39:41.302Z,99242.52
2018-10-16T15:42:09.854Z,99241.43
2018-10-16T15:44:38.194Z,99237.09
2018-10-16T15:47:06.559Z,99243.41
2018-10-16T15:49:34.971Z,99239.04
2018-10-16T15:52:03.311Z,99237.50
2018-10-16T15:54:31.609Z,99242.45
2018-10-16T15:57:00.023Z,99243.20
2018-10-16T15:59:28.417Z,99245.52
2018-10-16T16:01:56.744Z,99245.65
2018-10-16T16:04:25.096Z,99244.42
2018-10-16T16:06:53.589Z,99243.70
2018-10-16T16:09:22.869Z,99241.64
2018-10-16T16:11:51.295Z,99247.45
2018-10-16T16:14:19.631Z,99246.63
2018-10-16T16:16:47.998Z,99251.71
2018-10-16T16:19:16.428Z,99254.98
2018-10-16T16:21:45.614Z,99255.25
2018-10-16T16:24:14.018Z,99258.39
2018-10-16T16:26:42.427Z,99263.50
2018-10-16T16:29:10.743Z,99263.26
2018-10-16T16:31:39.169Z,99269.09
2018-10-16T16:34:07.563Z,99259.91
2018-10-16T16:36:35.986Z,99263.19
2018-10-16T16:39:06.417Z,99265.59
2018-10-16T16:41:34.782Z,99265.38
2018-10-16T16:44:03.281Z,99265.52
2018-10-16T16:46:31.595Z,99265.65
2018-10-16T16:48:59.924Z,99260.94
2018-10-16T16:51:28.282Z,99268.54
2018-10-16T16:53:56.637Z,99271.47
2018-10-16T16:56:25.039Z,99271.59
2018-10-16T16:58:53.442Z,99270.02
2018-10-16T17:01:21.776Z,99277.66
2018-10-16T17:03:50.246Z,99280.31
2018-10-16T17:06:18.570Z,99276.11
2018-10-16T17:08:47.771Z,99277.54
2018-10-16T17:11:16.291Z,99277.19
2018-10-16T17:13:44.654Z,99277.80
2018-10-16T17:16:13.120Z,99282.77
2018-10-16T17:18:41.479Z,99288.23
2018-10-16T17:21:11.644Z,99314.96
2018-10-16T17:23:40.199Z,99314.58
2018-10-16T17:26:08.934Z,99315.56
2018-10-16T17:28:37.351Z,99317.84
2018-10-16T17:31:06.110Z,99315.19
2018-10-16T17:33:34.614Z,99321.15
2018-10-16T17:36:03.180Z,99322.09
2018-10-16T17:38:32.264Z,99326.09
2018-10-16T17:41:00.731Z,99325.36
2018-10-16T17:43:29.145Z,99324.41
2018-10-16T17:45:58.244Z,99328.41
2018-10-16T17:48:26.664Z,99323.21
2018-10-16T17:50:55.081Z,99323.91
2018-10-16T17:53:23.435Z,99324.03
2018-10-16T17:55:51.807Z,99320.68
2018-10-16T17:58:22.072Z,99319.70
2018-10-16T18:00:52.359Z,99317.89
2018-10-16T18:03:21.471Z,99318.71
2018-10-16T18:05:49.807Z,99326.69
2018-10-16T18:08:18.235Z,99324.55
2018-10-16T18:10:46.602Z,99331.66
2018-10-16T18:13:15.013Z,99322.01
2018-10-16T18:15:43.459Z,99325.62
2018-10-16T18:18:11.840Z,99331.07
2018-10-16T18:20:40.907Z,99328.88
2018-10-16T18:23:10.048Z,99326.22
2018-10-16T18:25:38.375Z,99326.60
2018-10-16T18:28:06.784Z,99330.22
2018-10-16T18:30:35.183Z,99332.75
2018-10-16T18:33:03.607Z,99331.80
2018-10-16T18:35:31.962Z,99332.65
2018-10-16T18:38:00.279Z,99332.75
2018-10-16T18:40:28.599Z,99331.41
2018-10-16T18:42:56.968Z,99331.41
2018-10-16T18:45:25.310Z,99330.59
2018-10-16T18:47:54.172Z,99334.20
2018-10-16T18:50:22.466Z,99330.69
2018-10-16T18:52:50.879Z,99338.67
2018-10-16T18:55:19.235Z,99335.63
2018-10-16T18:57:47.596Z,99336.11
2018-10-16T19:00:18.243Z,99334.42
2018-10-16T19:02:47.487Z,99341.08
2018-10-16T19:05:15.980Z,99334.08
2018-10-16T19:07:44.334Z,99341.20
2018-10-16T19:10:12.693Z,99339.02
2018-10-16T19:12:41.842Z,99347.98
2018-10-16T19:15:11.761Z,99350.77
2018-10-16T19:17:40.215Z,99350.39
2018-10-16T19:20:10.617Z,99363.21
2018-10-16T19:22:39.361Z,99351.37
2018-10-16T19:25:08.739Z,99362.01
2018-10-16T19:27:37.217Z,99362.48
2018-10-16T19:30:06.790Z,99366.98
2018-10-16T19:32:35.265Z,99359.22
2018-10-16T19:35:03.775Z,99355.23
2018-10-16T19:37:32.363Z,99357.06
2018-10-16T19:40:00.748Z,99352.22
2018-10-16T19:42:29.097Z,99355.73
2018-10-16T19:44:57.453Z,99356.69
2018-10-16T19:47:25.818Z,99356.46
2018-10-16T19:49:54.150Z,99360.80
2018-10-16T19:52:22.486Z,99359.13
2018-10-16T19:54:50.879Z,99361.41
2018-10-16T19:57:19.232Z,99363.59
2018-10-16T19:59:47.822Z,99357.92
2018-10-16T20:02:16.223Z,99362.00
2018-10-16T20:04:44.607Z,99367.32
2018-10-16T20:07:12.922Z,99366.12
2018-10-16T20:09:41.432Z,99368.77
2018-10-16T20:12:09.871Z,99367.95
2018-10-16T20:14:38.279Z,99369.76
2018-10-16T20:17:06.713Z,99366.37
2018-10-16T20:19:35.157Z,99374.00
2018-10-16T20:22:03.573Z,99373.02
2018-10-16T20:24:32.003Z,99370.61
2018-10-16T20:27:00.326Z,99376.78
2018-10-16T20:29:28.663Z,99375.06
2018-10-16T20:31:56.959Z,99372.92
2018-10-16T20:34:25.381Z,99369.88
2018-10-16T20:36:53.744Z,99367.69
2018-10-16T20:39:22.152Z,99365.54
2018-10-16T20:41:50.633Z,99370.86
2018-10-16T20:44:18.926Z,99366.61
2018-10-16T20:46:47.399Z,99369.87
2018-10-16T20:49:15.884Z,99369.87
2018-10-16T20:51:44.351Z,99374.36
2018-10-16T20:54:12.806Z,99371.33
2018-10-16T20:56:41.161Z,99374.48
2018-10-16T20:59:09.557Z,99370.12
2018-10-16T21:01:38.050Z,99373.25
2018-10-16T21:04:06.455Z,99372.05
2018-10-16T21:06:35.168Z,99369.03
2018-10-16T21:09:03.494Z,99365.91
2018-10-16T21:11:31.846Z,99371.83
2018-10-16T21:14:00.174Z,99365.42
2018-10-16T21:16:28.611Z,99368.55
2018-10-16T21:18:56.968Z,99366.84
2018-10-16T21:21:25.395Z,99373.48
2018-10-16T21:23:53.779Z,99373.61
2018-10-16T21:26:22.153Z,99367.47
2018-10-16T21:28:50.549Z,99371.59
2018-10-16T21:31:19.003Z,99375.19
2018-10-16T21:33:47.356Z,99372.66
2018-10-16T21:36:15.723Z,99366.61
2018-10-16T21:38:44.074Z,99366.25
2018-10-16T21:41:12.634Z,99368.66
2018-10-16T21:43:41.174Z,99367.83
2018-10-16T21:46:09.567Z,99371.94
2018-10-16T21:48:38.395Z,99368.90
2018-10-16T21:51:06.873Z,99367.70
2018-10-16T21:53:35.458Z,99363.36
2018-10-16T21:56:04.114Z,99367.44
2018-10-16T21:58:32.712Z,99365.75
2018-10-16T22:01:06.708Z,99365.38
2018-10-16T22:03:35.033Z,99367.30
2018-10-16T22:06:03.431Z,99360.27
2018-10-16T22:08:31.870Z,99359.57
2018-10-16T22:11:00.274Z,99363.17
2018-10-16T22:13:28.674Z,99361.49
2018-10-16T22:15:57.215Z,99359.08
2018-10-16T22:18:25.645Z,99358.58
2018-10-16T22:20:54.098Z,99352.66
2018-10-16T22:23:22.565Z,99357.27
2018-10-16T22:25:51.027Z,99351.95
2018-10-16T22:28:19.594Z,99352.55
2018-10-16T22:30:48.034Z,99353.14
2018-10-16T22:33:16.490Z,99350.13
2018-10-16T22:35:45.052Z,99343.58
2018-10-16T22:38:13.536Z,99349.40
2018-10-16T22:40:42.529Z,99349.02
2018-10-16T22:43:10.875Z,99340.34
2018-10-16T22:45:39.257Z,99340.44
2018-10-16T22:48:07.558Z,99342.73
2018-10-16T22:50:36.038Z,99346.37
2018-10-16T22:53:04.417Z,99350.45
2018-10-16T22:55:32.698Z,99346.58
2018-10-16T22:58:01.022Z,99344.91
2018-10-16T23:00:29.493Z,99345.87
2018-10-16T23:02:58.939Z,99343.70
2018-10-16T23:05:27.474Z,99348.62
2018-10-16T23:07:56.109Z,99341.28
2018-10-16T23:10:24.614Z,99340.42
2018-10-16T23:12:58.365Z,99337.03
2018-10-16T23:15:26.886Z,99335.36
2018-10-16T23:17:55.415Z,99328.34
2018-10-16T23:20:23.893Z,99330.25
2018-10-16T23:22:52.257Z,99319.28
2018-10-16T23:25:20.594Z,99323.73
2018-10-16T23:27:48.898Z,99319.88
2018-10-16T23:30:17.350Z,99317.72
2018-10-16T23:32:46.615Z,99316.99
2018-10-16T23:35:15.135Z,99322.30
2018-10-16T23:37:43.382Z,99316.25
2018-10-16T23:40:11.767Z,99318.91
2018-10-16T23:42:40.209Z,99319.50
2018-10-16T23:45:08.602Z,99326.14
2018-10-16T23:47:37.001Z,99319.16
2018-10-16T23:50:05.657Z,99319.62
2018-10-16T23:52:34.052Z,99313.11
2018-10-16T23:55:02.600Z,99311.90
2018-10-16T23:57:31.124Z,99314.67
2018-10-16T23:59:59.653Z,99321.31
